createdAt,value
2022-12-13T00:01:19.307Z,95137.44
2022-12-13T00:03:46.312Z,95136.97
2022-12-13T00:06:15.579Z,95139.06
2022-12-13T00:08:42.523Z,95130.56
2022-12-13T00:11:09.312Z,95128.47
2022-12-13T00:13:36.308Z,95135.88
2022-12-13T00:16:05.419Z,95132.88
2022-12-13T00:18:33.145Z,95152.19
2022-12-13T00:21:00.185Z,95149.25
2022-12-13T00:23:27.780Z,95134.72
2022-12-13T00:25:55.330Z,95127.19
2022-12-13T00:28:21.988Z,95114.97
2022-12-13T00:30:50.374Z,95111.16
2022-12-13T00:33:17.192Z,95099.91
2022-12-13T00:35:43.867Z,95094.59
2022-12-13T00:38:10.788Z,95091.28
2022-12-13T00:40:39.253Z,95079.16
2022-12-13T00:43:05.896Z,95093.00
2022-12-13T00:45:32.574Z,95086.91
2022-12-13T00:48:02.773Z,95086.13
2022-12-13T00:50:29.428Z,95087.72
2022-12-13T00:52:56.599Z,95076.56
2022-12-13T00:55:23.535Z,95081.78
2022-12-13T00:57:50.404Z,95075.09
2022-12-13T01:00:17.517Z,95077.50
2022-12-13T01:02:44.148Z,95089.59
2022-12-13T01:05:10.829Z,95084.41
2022-12-13T01:07:37.752Z,95077.06
2022-12-13T01:10:09.360Z,95078.91
2022-12-13T01:12:36.721Z,95081.28
2022-12-13T01:15:05.727Z,95078.09
2022-12-13T01:17:36.211Z,95079.53
2022-12-13T01:20:03.188Z,95071.69
2022-12-13T01:22:30.391Z,95066.56
2022-12-13T01:24:57.590Z,95070.88
2022-12-13T01:27:32.627Z,95066.75
2022-12-13T01:30:02.241Z,95056.00
2022-12-13T01:32:29.910Z,95068.94
2022-12-13T01:34:56.503Z,95067.91
2022-12-13T01:37:26.110Z,95061.06
2022-12-13T01:39:58.557Z,95059.63
2022-12-13T01:42:25.486Z,95055.25
2022-12-13T01:44:52.861Z,95059.34
2022-12-13T01:47:19.791Z,95066.28
2022-12-13T01:49:46.614Z,95067.09
2022-12-13T01:52:13.609Z,95072.47
2022-12-13T01:54:46.704Z,95064.00
2022-12-13T01:57:15.026Z,95062.44
2022-12-13T01:59:45.175Z,95063.16
2022-12-13T02:02:11.791Z,95062.88
2022-12-13T02:04:43.938Z,95060.66
2022-12-13T02:07:11.601Z,95061.25
2022-12-13T02:09:39.539Z,95063.09
2022-12-13T02:12:07.050Z,95057.09
2022-12-13T02:14:33.706Z,95054.09
2022-12-13T02:17:00.715Z,95053.84
2022-12-13T02:19:27.661Z,95062.84
2022-12-13T02:21:54.971Z,95055.25
2022-12-13T02:24:22.052Z,95045.63
2022-12-13T02:26:49.088Z,95049.53
2022-12-13T02:29:30.740Z,95040.56
2022-12-13T02:31:58.330Z,95036.53
2022-12-13T02:34:28.137Z,95027.88
2022-12-13T02:37:03.289Z,95025.66
2022-12-13T02:39:31.070Z,95019.94
2022-12-13T02:42:00.283Z,95028.66
2022-12-13T02:44:27.118Z,95024.34
2022-12-13T02:46:53.961Z,95017.84
2022-12-13T02:49:20.830Z,95017.22
2022-12-13T02:51:48.004Z,95008.13
2022-12-13T02:54:14.968Z,95003.63
2022-12-13T02:56:43.506Z,94999.91
2022-12-13T02:59:10.033Z,95001.47
2022-12-13T03:01:40.417Z,94999.72
2022-12-13T03:04:07.564Z,94995.94
2022-12-13T03:06:34.821Z,95002.53
2022-12-13T03:09:02.461Z,94994.06
2022-12-13T03:11:29.147Z,94995.16
2022-12-13T03:13:55.671Z,94995.97
2022-12-13T03:16:23.466Z,94993.13
2022-12-13T03:18:50.481Z,94995.06
2022-12-13T03:21:17.341Z,94990.00
2022-12-13T03:23:43.957Z,94993.31
2022-12-13T03:26:11.759Z,94987.38
2022-12-13T03:28:39.315Z,94982.94
2022-12-13T03:31:06.352Z,94977.81
2022-12-13T03:33:33.408Z,94981.13
2022-12-13T03:36:05.173Z,94976.72
2022-12-13T03:38:32.313Z,94970.00
2022-12-13T03:41:02.892Z,94964.13
2022-12-13T03:43:34.300Z,94963.69
2022-12-13T03:46:01.925Z,94961.81
2022-12-13T03:48:28.529Z,94966.13
2022-12-13T03:50:55.281Z,94964.50
2022-12-13T03:53:32.249Z,94963.78
2022-12-13T03:56:01.485Z,94968.13
2022-12-13T03:58:35.648Z,94967.53
2022-12-13T04:01:08.537Z,94966.06
2022-12-13T04:03:35.160Z,94967.69
2022-12-13T04:06:03.148Z,94974.91
2022-12-13T04:08:29.939Z,94968.47
2022-12-13T04:10:57.956Z,94975.50
2022-12-13T04:13:44.680Z,94959.53
2022-12-13T04:16:32.611Z,94960.31
2022-12-13T04:19:00.861Z,94946.97
2022-12-13T04:21:27.499Z,94945.53
2022-12-13T04:23:54.879Z,94948.09
2022-12-13T04:26:24.327Z,94953.56
2022-12-13T04:28:54.733Z,94947.91
2022-12-13T04:31:22.129Z,94951.06
2022-12-13T04:33:49.561Z,94952.38
2022-12-13T04:36:16.605Z,94941.41
2022-12-13T04:39:00.742Z,94947.66
2022-12-13T04:41:34.441Z,94944.13
2022-12-13T04:44:06.012Z,94942.59
2022-12-13T04:46:33.547Z,94945.59
2022-12-13T04:49:00.253Z,94943.91
2022-12-13T04:51:27.095Z,94944.00
2022-12-13T04:53:55.030Z,94943.66
2022-12-13T04:56:21.815Z,94941.97
2022-12-13T04:58:48.864Z,94938.13
2022-12-13T05:01:16.325Z,94946.16
2022-12-13T05:03:45.659Z,94941.72
2022-12-13T05:06:26.277Z,94946.00
2022-12-13T05:09:00.874Z,94946.63
2022-12-13T05:11:28.035Z,94929.31
2022-12-13T05:14:03.450Z,94928.97
2022-12-13T05:16:30.201Z,94922.59
2022-12-13T05:19:04.481Z,94924.81
2022-12-13T05:30:33.239Z,94922.06
2022-12-13T05:33:00.203Z,94918.34
2022-12-13T05:35:27.264Z,94921.63
2022-12-13T05:40:38.726Z,94918.13
2022-12-13T05:43:21.336Z,94916.28
2022-12-13T05:45:50.082Z,94924.63
2022-12-13T05:48:24.666Z,94928.28
2022-12-13T05:51:10.490Z,94932.59
2022-12-13T05:53:38.439Z,94921.25
2022-12-13T05:56:05.047Z,94926.91
2022-12-13T06:01:12.247Z,94928.22
2022-12-13T06:03:41.632Z,94924.03
2022-12-13T06:06:08.490Z,94920.78
2022-12-13T06:08:45.989Z,94926.28
2022-12-13T06:11:31.091Z,94915.72
2022-12-13T06:14:00.967Z,94915.94
2022-12-13T06:16:28.222Z,94923.69
2022-12-13T06:19:03.189Z,94920.41
2022-12-13T06:21:41.212Z,94922.97
2022-12-13T06:24:10.925Z,94920.03
2022-12-13T06:26:37.967Z,94923.63
2022-12-13T06:29:23.534Z,94908.13
2022-12-13T06:34:42.414Z,94921.66
2022-12-13T06:37:14.282Z,94924.94
2022-12-13T06:39:41.665Z,94929.72
2022-12-13T06:42:08.693Z,94932.31
2022-12-13T06:44:37.479Z,94927.13
2022-12-13T06:47:11.352Z,94934.69
2022-12-13T06:49:40.783Z,94934.16
2022-12-13T06:52:09.535Z,94937.88
2022-12-13T06:54:36.476Z,94932.50
2022-12-13T06:59:33.751Z,94931.41
2022-12-13T07:02:03.594Z,94935.59
2022-12-13T07:04:31.397Z,94943.78
2022-12-13T07:07:01.174Z,94945.28
2022-12-13T07:09:32.613Z,94959.31
2022-12-13T07:12:01.082Z,94959.31
2022-12-13T07:14:28.168Z,94961.50
2022-12-13T07:17:02.865Z,94962.13
2022-12-13T07:19:35.342Z,94958.41
2022-12-13T07:22:04.159Z,94964.28
2022-12-13T07:24:33.404Z,94962.81
2022-12-13T07:27:00.766Z,94959.09
2022-12-13T07:29:29.704Z,94961.28
2022-12-13T07:32:01.561Z,94985.19
2022-12-13T07:34:34.999Z,94980.72
2022-12-13T07:37:02.939Z,94984.44
2022-12-13T07:39:33.618Z,94984.13
2022-12-13T07:42:02.036Z,94988.19
2022-12-13T07:47:29.985Z,94989.41
2022-12-13T07:50:25.218Z,94998.44
2022-12-13T07:55:35.468Z,95001.84
2022-12-13T07:58:03.947Z,95011.09
2022-12-13T08:00:33.156Z,95008.13
2022-12-13T08:03:03.233Z,95001.84
2022-12-13T08:07:59.292Z,95015.34
2022-12-13T08:10:26.028Z,95013.88
2022-12-13T08:12:53.245Z,95015.47
2022-12-13T08:15:21.470Z,95014.81
2022-12-13T08:17:52.131Z,95013.31
2022-12-13T08:20:23.168Z,95015.50
2022-12-13T08:22:50.936Z,95011.69
2022-12-13T08:25:18.115Z,95016.28
2022-12-13T08:27:45.331Z,95021.09
2022-12-13T08:30:23.083Z,95027.69
2022-12-13T08:32:52.989Z,95028.94
2022-12-13T08:35:24.240Z,95032.94
2022-12-13T08:38:03.608Z,95043.19
2022-12-13T08:43:15.926Z,95027.97
2022-12-13T08:45:42.929Z,95027.06
2022-12-13T08:48:12.591Z,95024.44
2022-12-13T08:50:39.590Z,95025.13
2022-12-13T08:53:11.398Z,95031.88
2022-12-13T08:55:57.507Z,95034.41
2022-12-13T08:58:24.531Z,95045.66
2022-12-13T09:00:51.977Z,95058.25
2022-12-13T09:03:23.381Z,95054.56
2022-12-13T09:06:01.518Z,95054.00
2022-12-13T09:08:34.898Z,95064.78
2022-12-13T09:11:11.304Z,95071.63
2022-12-13T09:13:52.136Z,95077.97
2022-12-13T09:16:23.126Z,95078.69
2022-12-13T09:18:55.174Z,95068.38
2022-12-13T09:21:31.375Z,95075.66
2022-12-13T09:24:01.815Z,95077.00
2022-12-13T09:26:38.453Z,95087.25
2022-12-13T09:29:11.126Z,95081.38
2022-12-13T09:31:39.315Z,95081.41
2022-12-13T09:34:10.640Z,95076.97
2022-12-13T09:36:38.568Z,95079.22
2022-12-13T09:41:48.357Z,95089.09
2022-12-13T09:44:32.072Z,95084.13
2022-12-13T09:47:13.162Z,95078.06
2022-12-13T09:52:25.113Z,95084.81
2022-12-13T09:57:34.208Z,95068.06
2022-12-13T10:00:02.034Z,95065.75
2022-12-13T10:08:04.811Z,95060.84
2022-12-13T10:10:39.539Z,95058.56
2022-12-13T10:13:10.973Z,95062.53
2022-12-13T10:15:38.142Z,95062.66
2022-12-13T10:18:04.905Z,95058.75
2022-12-13T10:20:40.298Z,95069.13
2022-12-13T10:25:53.849Z,95067.53
2022-12-13T10:28:31.825Z,95058.47
2022-12-13T10:33:29.254Z,95050.84
2022-12-13T10:35:59.662Z,95052.75
2022-12-13T10:43:51.564Z,95064.69
2022-12-13T10:46:25.266Z,95052.91
2022-12-13T10:49:04.493Z,95050.41
2022-12-13T10:54:38.526Z,95047.28
2022-12-13T10:57:15.511Z,95039.78
2022-12-13T11:02:23.306Z,95034.72
2022-12-13T11:04:52.005Z,95029.38
2022-12-13T11:07:20.278Z,95025.72
2022-12-13T11:09:54.058Z,95031.91
2022-12-13T11:12:23.764Z,95031.84
2022-12-13T11:14:55.299Z,95028.31
2022-12-13T11:17:24.550Z,95033.06
2022-12-13T11:19:51.779Z,95031.06
2022-12-13T11:22:18.950Z,95039.38
2022-12-13T11:24:58.323Z,95036.41
2022-12-13T11:27:32.279Z,95036.78
2022-12-13T11:32:41.621Z,95033.34
2022-12-13T11:35:18.570Z,95034.69
2022-12-13T11:40:54.317Z,95033.75
2022-12-13T11:43:32.467Z,95031.34
2022-12-13T11:46:05.864Z,95045.03
2022-12-13T11:48:33.107Z,95036.94
2022-12-13T11:54:10.783Z,95036.28
2022-12-13T11:56:39.933Z,95041.31
2022-12-13T11:59:16.362Z,95044.16
2022-12-13T12:02:05.258Z,95041.31
2022-12-13T12:07:35.189Z,95044.78
2022-12-13T12:10:09.712Z,95038.91
2022-12-13T12:12:42.044Z,95022.41
2022-12-13T12:24:25.394Z,95013.34
2022-12-13T12:27:12.721Z,95010.38
2022-12-13T12:29:42.446Z,95009.84
2022-12-13T12:32:10.655Z,95015.72
2022-12-13T12:34:37.997Z,95016.59
2022-12-13T12:37:21.065Z,95010.06
2022-12-13T12:39:53.078Z,95007.09
2022-12-13T12:45:10.681Z,94994.53
2022-12-13T12:50:35.268Z,95003.09
2022-12-13T12:53:03.854Z,95004.31
2022-12-13T12:55:32.513Z,94994.50
2022-12-13T12:58:01.532Z,94990.38
2022-12-13T13:00:30.868Z,94979.88
2022-12-13T13:03:01.789Z,94979.66
2022-12-13T13:05:41.157Z,94990.50
2022-12-13T13:11:02.387Z,94988.66
2022-12-13T13:13:35.401Z,94977.78
2022-12-13T13:22:31.513Z,94985.38
2022-12-13T13:25:09.962Z,94989.94
2022-12-13T13:27:42.021Z,94987.19
2022-12-13T13:30:24.908Z,94988.50
2022-12-13T13:33:01.091Z,94991.69
2022-12-13T13:35:38.563Z,94996.19
2022-12-13T13:38:06.323Z,94993.28
2022-12-13T13:40:37.080Z,94992.25
2022-12-13T13:43:04.119Z,94998.47
2022-12-13T13:45:31.667Z,95007.69
2022-12-13T13:48:04.272Z,94998.13
2022-12-13T13:50:43.367Z,95014.00
2022-12-13T13:53:20.977Z,95009.28
2022-12-13T13:56:09.782Z,95001.53
2022-12-13T13:58:58.785Z,94997.25
2022-12-13T14:04:33.492Z,94997.13
2022-12-13T14:07:07.560Z,95004.16
2022-12-13T14:09:38.325Z,95004.56
2022-12-13T14:12:08.299Z,95009.06
2022-12-13T14:14:38.778Z,95008.16
2022-12-13T14:17:08.618Z,95007.75
2022-12-13T14:19:37.901Z,95003.47
2022-12-13T14:22:07.695Z,95005.16
2022-12-13T14:24:34.669Z,95003.44
2022-12-13T14:29:58.208Z,95015.47
2022-12-13T14:32:27.183Z,95008.78
2022-12-13T14:35:25.837Z,95011.84
2022-12-13T14:37:56.054Z,95015.47
2022-12-13T14:40:24.160Z,95015.16
2022-12-13T14:42:55.110Z,95011.50
2022-12-13T14:54:47.471Z,95007.75
2022-12-13T14:57:16.101Z,95002.13
2022-12-13T14:59:47.006Z,95005.78
2022-12-13T15:02:30.962Z,95002.53
2022-12-13T15:05:06.155Z,95003.41
2022-12-13T15:07:36.293Z,95006.16
2022-12-13T15:10:03.189Z,94996.66
2022-12-13T15:12:31.046Z,94998.22
2022-12-13T15:14:58.760Z,95000.44
2022-12-13T15:17:27.828Z,94995.22
2022-12-13T15:19:56.320Z,94997.78
2022-12-13T15:22:46.131Z,94998.78
2022-12-13T15:27:58.161Z,94998.19
2022-12-13T15:33:26.374Z,95005.09
2022-12-13T15:35:57.910Z,95006.03
2022-12-13T15:38:29.150Z,95007.69
2022-12-13T15:40:57.235Z,94994.69
2022-12-13T15:43:29.465Z,94992.41
2022-12-13T15:45:57.447Z,95004.75
2022-12-13T15:48:24.746Z,94990.69
2022-12-13T15:50:55.661Z,95000.22
2022-12-13T16:04:46.375Z,94999.66
2022-12-13T16:07:13.967Z,95002.03
2022-12-13T16:09:42.408Z,94996.50
2022-12-13T16:12:27.304Z,94998.59
2022-12-13T16:14:54.750Z,95002.47
2022-12-13T16:17:39.871Z,94992.22
2022-12-13T16:20:11.857Z,94993.31
2022-12-13T16:22:40.641Z,94995.22
2022-12-13T16:25:11.505Z,94985.00
2022-12-13T16:27:47.874Z,94984.19
2022-12-13T16:39:15.436Z,94981.00
2022-12-13T16:41:44.117Z,94981.41
2022-12-13T16:44:24.685Z,94986.50
2022-12-13T16:47:17.484Z,94988.56
2022-12-13T16:49:50.025Z,94983.16
2022-12-13T16:52:36.599Z,94979.25
2022-12-13T16:55:18.700Z,94984.28
2022-12-13T16:57:54.081Z,94979.78
2022-12-13T17:00:26.905Z,94982.72
2022-12-13T17:05:59.245Z,94972.78
2022-12-13T17:08:27.582Z,94972.88
2022-12-13T17:10:57.814Z,94974.78
2022-12-13T17:13:26.579Z,94979.22
2022-12-13T17:18:38.470Z,94964.25
2022-12-13T17:24:24.814Z,94963.63
2022-12-13T17:26:54.874Z,94957.19
2022-12-13T17:29:22.969Z,94963.84
2022-12-13T17:31:50.847Z,94958.53
2022-12-13T17:34:21.440Z,94947.03
2022-12-13T17:36:52.351Z,94950.72
2022-12-13T17:39:33.541Z,94952.75
2022-12-13T17:42:00.490Z,94949.72
2022-12-13T17:44:30.852Z,94948.19
2022-12-13T17:47:09.198Z,94958.91
2022-12-13T17:52:29.115Z,94949.88
2022-12-13T17:54:57.710Z,94949.84
2022-12-13T17:57:29.137Z,94948.44
2022-12-13T18:00:17.007Z,94936.75
2022-12-13T18:02:54.887Z,94940.63
2022-12-13T18:05:32.306Z,94939.72
2022-12-13T18:08:03.921Z,94934.97
2022-12-13T18:10:31.336Z,94938.19
2022-12-13T18:15:51.576Z,94944.91
2022-12-13T18:21:01.825Z,94944.69
2022-12-13T18:23:29.292Z,94941.44
2022-12-13T18:25:58.439Z,94952.03
2022-12-13T18:28:28.016Z,94945.34
2022-12-13T18:30:57.113Z,94942.59
2022-12-13T18:33:27.106Z,94946.69
2022-12-13T18:35:56.490Z,94944.84
2022-12-13T18:38:32.981Z,94949.16
2022-12-13T18:41:03.781Z,94947.09
2022-12-13T18:49:29.491Z,94941.25
2022-12-13T18:51:59.823Z,94936.66
2022-12-13T18:54:27.650Z,94938.84
2022-12-13T18:56:54.363Z,94943.53
2022-12-13T18:59:24.373Z,94942.16
2022-12-13T19:01:51.227Z,94939.69
2022-12-13T19:04:18.133Z,94942.31
2022-12-13T19:06:45.636Z,94944.03
2022-12-13T19:09:13.383Z,94950.22
2022-12-13T19:11:42.747Z,94957.50
2022-12-13T19:14:09.549Z,94945.69
2022-12-13T19:16:38.738Z,94955.28
2022-12-13T19:19:06.381Z,94948.28
2022-12-13T19:21:38.029Z,94947.50
2022-12-13T19:24:10.862Z,94943.38
2022-12-13T19:26:37.737Z,94942.66
2022-12-13T19:29:04.307Z,94945.44
2022-12-13T19:50:22.968Z,94934.31
2022-12-13T19:53:02.713Z,94931.13
2022-12-13T19:55:38.907Z,94939.19
2022-12-13T20:04:24.726Z,94925.16
2022-12-13T20:06:57.520Z,94930.72
2022-12-13T20:09:27.831Z,94930.88
2022-12-13T20:14:36.808Z,94922.63
2022-12-13T20:17:06.505Z,94917.50
2022-12-13T20:19:42.048Z,94921.41
2022-12-13T20:22:09.930Z,94911.13
2022-12-13T20:24:37.852Z,94910.13
2022-12-13T20:29:52.244Z,94910.41
2022-12-13T20:32:24.325Z,94907.94
2022-12-13T20:34:55.126Z,94914.38
2022-12-13T20:37:32.993Z,94912.94
2022-12-13T20:40:02.867Z,94913.06
2022-12-13T20:42:34.797Z,94922.38
2022-12-13T20:45:12.509Z,94917.09
2022-12-13T20:47:47.763Z,94912.75
2022-12-13T20:50:15.008Z,94913.34
2022-12-13T20:52:45.166Z,94912.16
2022-12-13T20:55:27.575Z,94916.94
2022-12-13T20:57:57.477Z,94897.16
2022-12-13T21:00:35.767Z,94909.09
2022-12-13T21:03:02.633Z,94904.84
2022-12-13T21:05:29.684Z,94907.38
2022-12-13T21:07:56.638Z,94899.53
2022-12-13T21:58:39.984Z,94894.56
2022-12-13T22:01:09.142Z,94889.81
2022-12-13T22:03:36.095Z,94890.91
2022-12-13T22:06:12.100Z,94888.75
2022-12-13T22:08:39.715Z,94888.72
2022-12-13T22:13:34.932Z,94884.53
2022-12-13T22:16:13.920Z,94889.72
2022-12-13T22:18:41.936Z,94892.78
2022-12-13T22:22:20.557Z,94890.84
2022-12-13T22:24:19.123Z,94891.97
2022-12-13T22:26:46.692Z,94883.63
2022-12-13T22:29:13.678Z,94886.69
2022-12-13T22:31:43.315Z,94881.81
2022-12-13T22:34:16.032Z,94882.13
2022-12-13T22:36:43.505Z,94883.25
2022-12-13T22:39:11.060Z,94878.91
2022-12-13T22:41:40.960Z,94871.50
2022-12-13T22:44:08.055Z,94864.00
2022-12-13T22:46:34.932Z,94859.09
2022-12-13T22:49:01.834Z,94860.44
2022-12-13T22:51:28.635Z,94870.41
2022-12-13T22:53:55.607Z,94867.06
2022-12-13T22:56:25.619Z,94861.84
2022-12-13T22:58:53.179Z,94867.53
2022-12-13T23:01:20.803Z,94861.69
2022-12-13T23:03:47.583Z,94862.19
2022-12-13T23:06:15.494Z,94852.41
2022-12-13T23:08:43.603Z,94856.09
2022-12-13T23:11:11.397Z,94847.13
2022-12-13T23:13:38.320Z,94848.63
2022-12-13T23:16:05.194Z,94850.91
2022-12-13T23:18:32.268Z,94847.00
2022-12-13T23:21:02.804Z,94842.69
2022-12-13T23:23:33.544Z,94836.13
2022-12-13T23:26:00.450Z,94842.84
2022-12-13T23:28:27.690Z,94841.78
2022-12-13T23:30:55.932Z,94830.91
2022-12-13T23:33:22.996Z,94837.88
2022-12-13T23:35:49.647Z,94847.53
2022-12-13T23:38:16.382Z,94847.38
2022-12-13T23:40:43.329Z,94838.50
2022-12-13T23:43:10.167Z,94824.88
2022-12-13T23:45:38.276Z,94833.16
2022-12-13T23:48:05.077Z,94817.28
2022-12-13T23:50:31.722Z,94820.34
2022-12-13T23:53:06.298Z,94823.16
2022-12-13T23:55:40.766Z,94819.63
2022-12-13T23:58:10.974Z,94819.63
